sensor_id;sensor_type;location;lat;lon;timestamp;P1;durP1;ratioP1;P2;durP2;ratioP2
18176;SDS011;9213;50.858;3.964;2023-05-10T00:13:20;24.40;;;11.50;;
18176;SDS011;9213;50.858;3.964;2023-05-10T00:15:47;26.03;;;11.93;;
18176;SDS011;9213;50.858;3.964;2023-05-10T00:18:13;27.93;;;12.23;;
18176;SDS011;9213;50.858;3.964;2023-05-10T00:20:40;25.73;;;12.00;;
18176;SDS011;9213;50.858;3.964;2023-05-10T00:23:07;26.13;;;12.30;;
18176;SDS011;9213;50.858;3.964;2023-05-10T00:25:34;26.83;;;12.53;;
18176;SDS011;9213;50.858;3.964;2023-05-10T00:28:01;29.63;;;13.33;;
18176;SDS011;9213;50.858;3.964;2023-05-10T00:30:29;27.87;;;12.90;;
18176;SDS011;9213;50.858;3.964;2023-05-10T00:32:56;34.70;;;14.00;;
18176;SDS011;9213;50.858;3.964;2023-05-10T00:35:23;34.73;;;14.43;;
18176;SDS011;9213;50.858;3.964;2023-05-10T00:37:51;35.80;;;14.63;;
18176;SDS011;9213;50.858;3.964;2023-05-10T00:40:18;31.63;;;14.93;;
18176;SDS011;9213;50.858;3.964;2023-05-10T00:42:44;31.50;;;15.33;;
18176;SDS011;9213;50.858;3.964;2023-05-10T00:45:11;33.27;;;15.13;;
18176;SDS011;9213;50.858;3.964;2023-05-10T00:47:40;30.80;;;15.87;;
18176;SDS011;9213;50.858;3.964;2023-05-10T00:50:07;36.07;;;15.93;;
18176;SDS011;9213;50.858;3.964;2023-05-10T00:52:35;34.83;;;15.97;;
18176;SDS011;9213;50.858;3.964;2023-05-10T00:55:02;33.90;;;16.60;;
18176;SDS011;9213;50.858;3.964;2023-05-10T00:57:30;34.37;;;16.13;;
18176;SDS011;9213;50.858;3.964;2023-05-10T00:59:58;38.47;;;16.60;;
18176;SDS011;9213;50.858;3.964;2023-05-10T01:02:25;39.30;;;17.67;;
18176;SDS011;9213;50.858;3.964;2023-05-10T01:04:54;38.40;;;17.03;;
18176;SDS011;9213;50.858;3.964;2023-05-10T01:07:21;41.43;;;18.03;;
18176;SDS011;9213;50.858;3.964;2023-05-10T01:09:48;43.63;;;17.57;;
18176;SDS011;9213;50.858;3.964;2023-05-10T01:12:15;40.83;;;18.60;;
18176;SDS011;9213;50.858;3.964;2023-05-10T01:14:42;44.43;;;17.97;;
18176;SDS011;9213;50.858;3.964;2023-05-10T01:17:09;41.00;;;18.70;;
18176;SDS011;9213;50.858;3.964;2023-05-10T01:19:38;44.27;;;18.73;;
18176;SDS011;9213;50.858;3.964;2023-05-10T01:22:10;43.57;;;19.17;;
18176;SDS011;9213;50.858;3.964;2023-05-10T01:25:11;43.87;;;19.80;;
18176;SDS011;9213;50.858;3.964;2023-05-10T01:31:06;43.40;;;18.47;;
18176;SDS011;9213;50.858;3.964;2023-05-10T01:33:46;43.03;;;18.57;;
18176;SDS011;9213;50.858;3.964;2023-05-10T01:36:19;42.70;;;19.07;;
18176;SDS011;9213;50.858;3.964;2023-05-10T01:38:51;40.23;;;18.53;;
18176;SDS011;9213;50.858;3.964;2023-05-10T01:41:25;44.77;;;18.90;;
18176;SDS011;9213;50.858;3.964;2023-05-10T01:44:01;47.83;;;19.53;;
18176;SDS011;9213;50.858;3.964;2023-05-10T01:46:36;43.80;;;18.43;;
18176;SDS011;9213;50.858;3.964;2023-05-10T01:49:07;51.60;;;20.20;;
18176;SDS011;9213;50.858;3.964;2023-05-10T01:51:36;46.50;;;19.73;;
18176;SDS011;9213;50.858;3.964;2023-05-10T01:54:06;49.77;;;19.90;;
18176;SDS011;9213;50.858;3.964;2023-05-10T01:56:36;50.63;;;19.40;;
18176;SDS011;9213;50.858;3.964;2023-05-10T01:59:08;47.13;;;19.07;;
18176;SDS011;9213;50.858;3.964;2023-05-10T02:01:38;45.23;;;18.93;;
18176;SDS011;9213;50.858;3.964;2023-05-10T02:04:08;44.30;;;18.63;;
18176;SDS011;9213;50.858;3.964;2023-05-10T02:06:38;43.97;;;19.40;;
18176;SDS011;9213;50.858;3.964;2023-05-10T02:09:06;44.37;;;19.20;;
18176;SDS011;9213;50.858;3.964;2023-05-10T02:11:35;43.17;;;17.87;;
18176;SDS011;9213;50.858;3.964;2023-05-10T02:14:05;43.33;;;18.60;;
18176;SDS011;9213;50.858;3.964;2023-05-10T02:16:34;38.97;;;17.87;;
18176;SDS011;9213;50.858;3.964;2023-05-10T02:19:02;49.77;;;19.07;;
18176;SDS011;9213;50.858;3.964;2023-05-10T02:21:31;36.97;;;17.77;;
18176;SDS011;9213;50.858;3.964;2023-05-10T02:24:01;42.47;;;18.27;;
18176;SDS011;9213;50.858;3.964;2023-05-10T02:26:30;38.43;;;17.67;;
18176;SDS011;9213;50.858;3.964;2023-05-10T02:28:59;44.83;;;18.07;;
18176;SDS011;9213;50.858;3.964;2023-05-10T02:31:29;41.60;;;18.23;;
18176;SDS011;9213;50.858;3.964;2023-05-10T02:33:58;43.53;;;19.40;;
18176;SDS011;9213;50.858;3.964;2023-05-10T02:36:26;47.17;;;18.27;;
18176;SDS011;9213;50.858;3.964;2023-05-10T02:38:55;41.43;;;19.10;;
18176;SDS011;9213;50.858;3.964;2023-05-10T02:41:23;41.20;;;19.47;;
18176;SDS011;9213;50.858;3.964;2023-05-10T02:43:52;46.27;;;20.37;;
18176;SDS011;9213;50.858;3.964;2023-05-10T02:46:22;45.43;;;20.93;;
18176;SDS011;9213;50.858;3.964;2023-05-10T02:48:49;46.57;;;22.00;;
18176;SDS011;9213;50.858;3.964;2023-05-10T02:51:16;45.10;;;20.77;;
18176;SDS011;9213;50.858;3.964;2023-05-10T02:53:46;54.07;;;21.70;;
18176;SDS011;9213;50.858;3.964;2023-05-10T02:56:19;45.97;;;21.93;;
18176;SDS011;9213;50.858;3.964;2023-05-10T02:58:51;51.23;;;21.60;;
18176;SDS011;9213;50.858;3.964;2023-05-10T03:01:18;58.63;;;23.20;;
18176;SDS011;9213;50.858;3.964;2023-05-10T03:03:45;49.53;;;21.30;;
18176;SDS011;9213;50.858;3.964;2023-05-10T03:06:12;58.80;;;22.67;;
18176;SDS011;9213;50.858;3.964;2023-05-10T03:08:39;56.03;;;22.83;;
18176;SDS011;9213;50.858;3.964;2023-05-10T03:11:14;54.37;;;21.80;;
18176;SDS011;9213;50.858;3.964;2023-05-10T03:13:53;57.43;;;22.17;;
18176;SDS011;9213;50.858;3.964;2023-05-10T03:16:32;58.97;;;22.30;;
18176;SDS011;9213;50.858;3.964;2023-05-10T03:19:06;55.20;;;23.63;;
18176;SDS011;9213;50.858;3.964;2023-05-10T03:21:39;55.63;;;23.47;;
18176;SDS011;9213;50.858;3.964;2023-05-10T03:24:09;57.23;;;24.00;;
18176;SDS011;9213;50.858;3.964;2023-05-10T03:26:41;59.83;;;24.37;;
18176;SDS011;9213;50.858;3.964;2023-05-10T03:29:11;61.97;;;25.50;;
18176;SDS011;9213;50.858;3.964;2023-05-10T03:31:39;56.07;;;24.13;;
18176;SDS011;9213;50.858;3.964;2023-05-10T03:34:06;58.47;;;24.70;;
18176;SDS011;9213;50.858;3.964;2023-05-10T03:36:33;55.20;;;24.37;;
18176;SDS011;9213;50.858;3.964;2023-05-10T03:39:00;61.27;;;24.93;;
18176;SDS011;9213;50.858;3.964;2023-05-10T03:41:27;64.67;;;25.43;;
18176;SDS011;9213;50.858;3.964;2023-05-10T03:43:55;64.40;;;25.90;;
18176;SDS011;9213;50.858;3.964;2023-05-10T03:46:22;75.93;;;27.57;;
18176;SDS011;9213;50.858;3.964;2023-05-10T03:48:49;61.40;;;25.60;;
18176;SDS011;9213;50.858;3.964;2023-05-10T03:51:16;56.53;;;24.57;;
18176;SDS011;9213;50.858;3.964;2023-05-10T03:53:43;56.53;;;25.63;;
18176;SDS011;9213;50.858;3.964;2023-05-10T03:56:09;68.07;;;23.97;;
18176;SDS011;9213;50.858;3.964;2023-05-10T03:58:36;58.57;;;22.67;;
18176;SDS011;9213;50.858;3.964;2023-05-10T04:01:05;54.80;;;21.57;;
18176;SDS011;9213;50.858;3.964;2023-05-10T04:03:31;53.53;;;22.33;;
18176;SDS011;9213;50.858;3.964;2023-05-10T04:06:00;60.03;;;22.73;;
18176;SDS011;9213;50.858;3.964;2023-05-10T04:08:28;49.80;;;21.57;;
18176;SDS011;9213;50.858;3.964;2023-05-10T04:11:04;49.23;;;20.63;;
18176;SDS011;9213;50.858;3.964;2023-05-10T04:13:32;52.77;;;22.53;;
18176;SDS011;9213;50.858;3.964;2023-05-10T04:15:59;54.53;;;21.27;;
18176;SDS011;9213;50.858;3.964;2023-05-10T04:18:27;50.47;;;21.30;;
18176;SDS011;9213;50.858;3.964;2023-05-10T04:20:54;48.50;;;20.33;;
18176;SDS011;9213;50.858;3.964;2023-05-10T04:23:21;53.23;;;21.10;;
18176;SDS011;9213;50.858;3.964;2023-05-10T04:25:48;63.70;;;20.67;;
18176;SDS011;9213;50.858;3.964;2023-05-10T04:28:15;54.33;;;20.00;;
18176;SDS011;9213;50.858;3.964;2023-05-10T04:30:42;51.90;;;19.97;;
18176;SDS011;9213;50.858;3.964;2023-05-10T04:33:08;54.10;;;19.77;;
18176;SDS011;9213;50.858;3.964;2023-05-10T04:35:37;54.83;;;18.83;;
18176;SDS011;9213;50.858;3.964;2023-05-10T04:38:05;50.03;;;19.87;;
18176;SDS011;9213;50.858;3.964;2023-05-10T04:40:31;41.07;;;19.37;;
18176;SDS011;9213;50.858;3.964;2023-05-10T04:42:59;52.97;;;19.00;;
18176;SDS011;9213;50.858;3.964;2023-05-10T04:45:26;45.80;;;19.13;;
18176;SDS011;9213;50.858;3.964;2023-05-10T04:47:53;56.27;;;19.40;;
18176;SDS011;9213;50.858;3.964;2023-05-10T04:50:20;55.30;;;19.63;;
18176;SDS011;9213;50.858;3.964;2023-05-10T04:52:48;53.33;;;20.83;;
18176;SDS011;9213;50.858;3.964;2023-05-10T04:55:15;64.97;;;20.80;;
18176;SDS011;9213;50.858;3.964;2023-05-10T04:57:42;66.73;;;21.87;;
18176;SDS011;9213;50.858;3.964;2023-05-10T05:00:10;75.20;;;22.80;;
18176;SDS011;9213;50.858;3.964;2023-05-10T05:02:37;79.27;;;24.23;;
18176;SDS011;9213;50.858;3.964;2023-05-10T05:05:05;64.87;;;23.33;;
18176;SDS011;9213;50.858;3.964;2023-05-10T05:07:32;64.13;;;23.53;;
18176;SDS011;9213;50.858;3.964;2023-05-10T05:10:00;78.07;;;24.63;;
18176;SDS011;9213;50.858;3.964;2023-05-10T05:12:28;75.80;;;24.63;;
18176;SDS011;9213;50.858;3.964;2023-05-10T05:14:55;72.50;;;23.77;;
18176;SDS011;9213;50.858;3.964;2023-05-10T05:17:22;59.47;;;23.77;;
18176;SDS011;9213;50.858;3.964;2023-05-10T05:19:49;65.70;;;23.93;;
18176;SDS011;9213;50.858;3.964;2023-05-10T05:22:16;66.93;;;24.97;;
18176;SDS011;9213;50.858;3.964;2023-05-10T05:24:44;76.63;;;23.80;;
18176;SDS011;9213;50.858;3.964;2023-05-10T05:27:12;70.87;;;23.50;;
18176;SDS011;9213;50.858;3.964;2023-05-10T05:29:39;79.40;;;25.60;;
18176;SDS011;9213;50.858;3.964;2023-05-10T05:32:06;70.53;;;24.43;;
18176;SDS011;9213;50.858;3.964;2023-05-10T05:34:33;77.07;;;25.90;;
18176;SDS011;9213;50.858;3.964;2023-05-10T05:37:00;76.80;;;26.17;;
18176;SDS011;9213;50.858;3.964;2023-05-10T05:39:27;79.73;;;25.73;;
18176;SDS011;9213;50.858;3.964;2023-05-10T05:41:54;73.13;;;25.13;;
18176;SDS011;9213;50.858;3.964;2023-05-10T05:44:22;77.30;;;25.13;;
18176;SDS011;9213;50.858;3.964;2023-05-10T05:46:49;71.47;;;25.03;;
18176;SDS011;9213;50.858;3.964;2023-05-10T05:49:16;70.47;;;23.97;;
18176;SDS011;9213;50.858;3.964;2023-05-10T05:51:43;74.67;;;25.10;;
18176;SDS011;9213;50.858;3.964;2023-05-10T05:54:10;70.07;;;24.70;;
18176;SDS011;9213;50.858;3.964;2023-05-10T05:56:37;63.13;;;23.80;;
18176;SDS011;9213;50.858;3.964;2023-05-10T05:59:04;68.73;;;23.13;;
18176;SDS011;9213;50.858;3.964;2023-05-10T06:01:32;78.63;;;24.40;;
18176;SDS011;9213;50.858;3.964;2023-05-10T06:03:59;67.40;;;22.87;;
18176;SDS011;9213;50.858;3.964;2023-05-10T06:06:26;67.40;;;23.43;;
18176;SDS011;9213;50.858;3.964;2023-05-10T06:08:53;66.67;;;22.93;;
18176;SDS011;9213;50.858;3.964;2023-05-10T06:11:20;63.70;;;22.73;;
18176;SDS011;9213;50.858;3.964;2023-05-10T06:13:47;63.93;;;23.57;;
18176;SDS011;9213;50.858;3.964;2023-05-10T06:16:14;69.37;;;25.67;;
18176;SDS011;9213;50.858;3.964;2023-05-10T06:18:44;62.50;;;22.03;;
18176;SDS011;9213;50.858;3.964;2023-05-10T06:21:11;77.23;;;22.93;;
18176;SDS011;9213;50.858;3.964;2023-05-10T06:23:37;59.87;;;21.27;;
18176;SDS011;9213;50.858;3.964;2023-05-10T06:26:04;77.13;;;22.43;;
18176;SDS011;9213;50.858;3.964;2023-05-10T06:28:31;57.53;;;21.00;;
18176;SDS011;9213;50.858;3.964;2023-05-10T06:30:58;71.77;;;23.03;;
18176;SDS011;9213;50.858;3.964;2023-05-10T06:33:25;82.23;;;24.03;;
18176;SDS011;9213;50.858;3.964;2023-05-10T06:35:53;62.27;;;23.67;;
18176;SDS011;9213;50.858;3.964;2023-05-10T06:38:20;68.30;;;22.07;;
18176;SDS011;9213;50.858;3.964;2023-05-10T06:40:47;65.43;;;22.13;;
18176;SDS011;9213;50.858;3.964;2023-05-10T06:43:14;85.13;;;23.47;;
18176;SDS011;9213;50.858;3.964;2023-05-10T06:45:41;63.07;;;21.53;;
18176;SDS011;9213;50.858;3.964;2023-05-10T06:48:08;69.97;;;23.43;;
18176;SDS011;9213;50.858;3.964;2023-05-10T06:50:35;62.27;;;21.33;;
18176;SDS011;9213;50.858;3.964;2023-05-10T06:53:03;77.57;;;22.10;;
18176;SDS011;9213;50.858;3.964;2023-05-10T06:55:30;70.73;;;22.40;;
18176;SDS011;9213;50.858;3.964;2023-05-10T06:57:57;65.73;;;21.63;;
18176;SDS011;9213;50.858;3.964;2023-05-10T07:00:24;68.07;;;21.37;;
18176;SDS011;9213;50.858;3.964;2023-05-10T07:02:51;64.47;;;21.53;;
18176;SDS011;9213;50.858;3.964;2023-05-10T07:05:18;67.20;;;20.77;;
18176;SDS011;9213;50.858;3.964;2023-05-10T07:07:45;60.13;;;20.60;;
18176;SDS011;9213;50.858;3.964;2023-05-10T07:10:13;66.33;;;20.73;;
18176;SDS011;9213;50.858;3.964;2023-05-10T07:12:40;54.23;;;20.00;;
18176;SDS011;9213;50.858;3.964;2023-05-10T07:15:07;62.00;;;19.93;;
18176;SDS011;9213;50.858;3.964;2023-05-10T07:17:35;51.43;;;17.90;;
18176;SDS011;9213;50.858;3.964;2023-05-10T07:20:02;56.30;;;18.17;;
18176;SDS011;9213;50.858;3.964;2023-05-10T07:22:30;49.97;;;17.17;;
18176;SDS011;9213;50.858;3.964;2023-05-10T07:24:57;47.37;;;16.97;;
18176;SDS011;9213;50.858;3.964;2023-05-10T07:27:25;46.47;;;16.53;;
18176;SDS011;9213;50.858;3.964;2023-05-10T07:29:52;46.67;;;15.90;;
18176;SDS011;9213;50.858;3.964;2023-05-10T07:32:19;44.30;;;15.80;;
18176;SDS011;9213;50.858;3.964;2023-05-10T07:34:46;50.47;;;16.77;;
18176;SDS011;9213;50.858;3.964;2023-05-10T07:37:13;45.17;;;15.53;;
18176;SDS011;9213;50.858;3.964;2023-05-10T07:39:40;46.30;;;15.27;;
18176;SDS011;9213;50.858;3.964;2023-05-10T07:42:07;41.00;;;14.23;;
18176;SDS011;9213;50.858;3.964;2023-05-10T07:44:35;42.80;;;14.67;;
18176;SDS011;9213;50.858;3.964;2023-05-10T07:47:02;38.27;;;14.30;;
18176;SDS011;9213;50.858;3.964;2023-05-10T07:49:29;41.67;;;14.37;;
18176;SDS011;9213;50.858;3.964;2023-05-10T07:51:55;40.53;;;14.47;;
18176;SDS011;9213;50.858;3.964;2023-05-10T07:54:22;39.90;;;15.10;;
18176;SDS011;9213;50.858;3.964;2023-05-10T07:56:49;41.53;;;14.40;;
18176;SDS011;9213;50.858;3.964;2023-05-10T07:59:17;39.50;;;12.93;;
18176;SDS011;9213;50.858;3.964;2023-05-10T08:01:46;38.40;;;13.93;;
18176;SDS011;9213;50.858;3.964;2023-05-10T08:04:13;38.97;;;14.17;;
18176;SDS011;9213;50.858;3.964;2023-05-10T08:06:40;34.80;;;13.43;;
18176;SDS011;9213;50.858;3.964;2023-05-10T08:09:07;37.57;;;13.73;;
18176;SDS011;9213;50.858;3.964;2023-05-10T08:11:35;37.53;;;14.20;;
18176;SDS011;9213;50.858;3.964;2023-05-10T08:14:02;31.27;;;14.13;;
18176;SDS011;9213;50.858;3.964;2023-05-10T08:16:29;40.13;;;14.97;;
18176;SDS011;9213;50.858;3.964;2023-05-10T08:18:58;41.60;;;14.83;;
18176;SDS011;9213;50.858;3.964;2023-05-10T08:21:25;39.00;;;14.67;;
18176;SDS011;9213;50.858;3.964;2023-05-10T08:23:52;37.53;;;14.10;;
18176;SDS011;9213;50.858;3.964;2023-05-10T08:26:19;33.37;;;14.37;;
18176;SDS011;9213;50.858;3.964;2023-05-10T08:28:46;37.17;;;14.27;;
18176;SDS011;9213;50.858;3.964;2023-05-10T08:31:13;31.67;;;14.93;;
18176;SDS011;9213;50.858;3.964;2023-05-10T08:33:41;34.50;;;14.07;;
18176;SDS011;9213;50.858;3.964;2023-05-10T08:36:09;34.87;;;13.67;;
18176;SDS011;9213;50.858;3.964;2023-05-10T08:38:36;33.10;;;12.93;;
18176;SDS011;9213;50.858;3.964;2023-05-10T08:41:04;30.93;;;13.63;;
18176;SDS011;9213;50.858;3.964;2023-05-10T08:43:31;31.47;;;13.37;;
18176;SDS011;9213;50.858;3.964;2023-05-10T08:46:00;28.87;;;13.13;;
18176;SDS011;9213;50.858;3.964;2023-05-10T08:48:27;30.40;;;14.53;;
18176;SDS011;9213;50.858;3.964;2023-05-10T08:50:56;33.13;;;14.03;;
18176;SDS011;9213;50.858;3.964;2023-05-10T08:53:27;36.03;;;13.70;;
18176;SDS011;9213;50.858;3.964;2023-05-10T08:55:57;31.93;;;14.53;;
18176;SDS011;9213;50.858;3.964;2023-05-10T08:58:24;36.53;;;14.97;;
18176;SDS011;9213;50.858;3.964;2023-05-10T09:00:51;33.30;;;15.17;;
18176;SDS011;9213;50.858;3.964;2023-05-10T09:03:19;24.90;;;12.70;;
18176;SDS011;9213;50.858;3.964;2023-05-10T09:05:46;27.37;;;13.90;;
18176;SDS011;9213;50.858;3.964;2023-05-10T09:08:13;31.37;;;14.00;;
18176;SDS011;9213;50.858;3.964;2023-05-10T09:10:43;27.80;;;13.83;;
18176;SDS011;9213;50.858;3.964;2023-05-10T09:13:12;28.33;;;14.50;;
18176;SDS011;9213;50.858;3.964;2023-05-10T09:15:40;23.10;;;13.83;;
18176;SDS011;9213;50.858;3.964;2023-05-10T09:18:07;26.77;;;14.07;;
18176;SDS011;9213;50.858;3.964;2023-05-10T09:20:34;26.20;;;13.53;;
18176;SDS011;9213;50.858;3.964;2023-05-10T09:23:01;20.27;;;12.70;;
18176;SDS011;9213;50.858;3.964;2023-05-10T09:25:28;19.47;;;12.60;;
18176;SDS011;9213;50.858;3.964;2023-05-10T09:27:56;17.70;;;12.03;;
18176;SDS011;9213;50.858;3.964;2023-05-10T09:30:24;18.03;;;12.67;;
18176;SDS011;9213;50.858;3.964;2023-05-10T09:32:52;18.80;;;11.73;;
18176;SDS011;9213;50.858;3.964;2023-05-10T09:35:20;22.90;;;12.67;;
18176;SDS011;9213;50.858;3.964;2023-05-10T09:37:49;21.37;;;12.67;;
18176;SDS011;9213;50.858;3.964;2023-05-10T09:40:19;19.27;;;11.90;;
18176;SDS011;9213;50.858;3.964;2023-05-10T09:42:51;18.03;;;12.57;;
18176;SDS011;9213;50.858;3.964;2023-05-10T09:45:20;21.23;;;12.63;;
18176;SDS011;9213;50.858;3.964;2023-05-10T09:47:48;21.70;;;12.67;;
18176;SDS011;9213;50.858;3.964;2023-05-10T09:50:14;17.97;;;12.73;;
18176;SDS011;9213;50.858;3.964;2023-05-10T09:52:48;18.63;;;12.67;;
18176;SDS011;9213;50.858;3.964;2023-05-10T09:55:17;19.80;;;12.33;;
18176;SDS011;9213;50.858;3.964;2023-05-10T09:57:45;17.80;;;12.40;;
18176;SDS011;9213;50.858;3.964;2023-05-10T10:00:16;19.50;;;12.30;;
18176;SDS011;9213;50.858;3.964;2023-05-10T10:02:47;22.53;;;12.53;;
18176;SDS011;9213;50.858;3.964;2023-05-10T10:05:20;17.20;;;12.63;;
18176;SDS011;9213;50.858;3.964;2023-05-10T10:07:47;15.93;;;11.60;;
18176;SDS011;9213;50.858;3.964;2023-05-10T10:10:15;18.47;;;12.53;;
18176;SDS011;9213;50.858;3.964;2023-05-10T10:12:42;13.60;;;10.70;;
18176;SDS011;9213;50.858;3.964;2023-05-10T10:15:10;16.23;;;11.83;;
18176;SDS011;9213;50.858;3.964;2023-05-10T10:17:37;16.33;;;11.90;;
18176;SDS011;9213;50.858;3.964;2023-05-10T10:20:07;14.93;;;11.50;;
18176;SDS011;9213;50.858;3.964;2023-05-10T10:22:34;19.43;;;12.80;;
18176;SDS011;9213;50.858;3.964;2023-05-10T10:25:02;17.03;;;12.37;;
18176;SDS011;9213;50.858;3.964;2023-05-10T10:27:33;17.07;;;11.80;;
18176;SDS011;9213;50.858;3.964;2023-05-10T10:30:13;18.07;;;12.57;;
18176;SDS011;9213;50.858;3.964;2023-05-10T10:32:54;15.33;;;11.63;;
18176;SDS011;9213;50.858;3.964;2023-05-10T10:35:37;19.07;;;12.30;;
18176;SDS011;9213;50.858;3.964;2023-05-10T10:38:05;16.43;;;12.50;;
18176;SDS011;9213;50.858;3.964;2023-05-10T10:40:34;18.30;;;11.77;;
18176;SDS011;9213;50.858;3.964;2023-05-10T10:46:09;14.60;;;11.70;;
18176;SDS011;9213;50.858;3.964;2023-05-10T10:48:38;13.20;;;11.27;;
18176;SDS011;9213;50.858;3.964;2023-05-10T10:51:08;18.40;;;12.13;;
18176;SDS011;9213;50.858;3.964;2023-05-10T10:53:36;15.10;;;10.93;;
18176;SDS011;9213;50.858;3.964;2023-05-10T10:56:07;15.90;;;12.53;;
18176;SDS011;9213;50.858;3.964;2023-05-10T10:58:36;17.23;;;12.10;;
18176;SDS011;9213;50.858;3.964;2023-05-10T11:01:13;21.37;;;12.10;;
18176;SDS011;9213;50.858;3.964;2023-05-10T11:04:04;14.93;;;11.73;;
18176;SDS011;9213;50.858;3.964;2023-05-10T11:06:44;15.40;;;11.37;;
18176;SDS011;9213;50.858;3.964;2023-05-10T11:09:11;15.83;;;11.57;;
18176;SDS011;9213;50.858;3.964;2023-05-10T11:11:48;17.23;;;11.47;;
18176;SDS011;9213;50.858;3.964;2023-05-10T11:14:19;16.30;;;11.73;;
18176;SDS011;9213;50.858;3.964;2023-05-10T11:16:47;13.43;;;12.03;;
18176;SDS011;9213;50.858;3.964;2023-05-10T11:19:15;16.00;;;12.00;;
18176;SDS011;9213;50.858;3.964;2023-05-10T11:21:47;16.17;;;11.47;;
18176;SDS011;9213;50.858;3.964;2023-05-10T11:24:16;16.50;;;12.53;;
18176;SDS011;9213;50.858;3.964;2023-05-10T11:26:44;15.73;;;11.77;;
18176;SDS011;9213;50.858;3.964;2023-05-10T11:29:12;15.93;;;11.67;;
18176;SDS011;9213;50.858;3.964;2023-05-10T11:31:42;17.10;;;12.67;;
18176;SDS011;9213;50.858;3.964;2023-05-10T11:34:11;15.70;;;12.23;;
18176;SDS011;9213;50.858;3.964;2023-05-10T11:36:51;17.10;;;12.00;;
18176;SDS011;9213;50.858;3.964;2023-05-10T11:39:19;17.77;;;12.77;;
18176;SDS011;9213;50.858;3.964;2023-05-10T11:41:47;17.57;;;11.87;;
18176;SDS011;9213;50.858;3.964;2023-05-10T11:44:14;17.30;;;11.87;;
18176;SDS011;9213;50.858;3.964;2023-05-10T11:46:41;16.10;;;11.83;;
18176;SDS011;9213;50.858;3.964;2023-05-10T11:49:08;14.90;;;12.33;;
18176;SDS011;9213;50.858;3.964;2023-05-10T11:51:36;14.53;;;11.90;;
18176;SDS011;9213;50.858;3.964;2023-05-10T11:54:06;17.63;;;12.00;;
18176;SDS011;9213;50.858;3.964;2023-05-10T11:56:34;18.07;;;13.03;;
18176;SDS011;9213;50.858;3.964;2023-05-10T11:59:02;15.17;;;13.13;;
18176;SDS011;9213;50.858;3.964;2023-05-10T12:01:30;14.07;;;12.47;;
18176;SDS011;9213;50.858;3.964;2023-05-10T12:03:58;17.90;;;12.77;;
18176;SDS011;9213;50.858;3.964;2023-05-10T12:06:26;18.73;;;13.47;;
18176;SDS011;9213;50.858;3.964;2023-05-10T12:08:54;18.27;;;13.47;;
18176;SDS011;9213;50.858;3.964;2023-05-10T12:11:25;17.67;;;13.23;;
18176;SDS011;9213;50.858;3.964;2023-05-10T12:13:53;21.57;;;13.77;;
18176;SDS011;9213;50.858;3.964;2023-05-10T12:16:21;18.27;;;12.73;;
18176;SDS011;9213;50.858;3.964;2023-05-10T12:18:49;18.20;;;13.50;;
18176;SDS011;9213;50.858;3.964;2023-05-10T12:21:18;16.17;;;12.80;;
18176;SDS011;9213;50.858;3.964;2023-05-10T12:23:46;14.73;;;13.20;;
18176;SDS011;9213;50.858;3.964;2023-05-10T12:26:14;18.17;;;13.70;;
18176;SDS011;9213;50.858;3.964;2023-05-10T12:28:42;15.87;;;12.77;;
18176;SDS011;9213;50.858;3.964;2023-05-10T12:31:10;16.77;;;13.53;;
18176;SDS011;9213;50.858;3.964;2023-05-10T12:33:37;16.23;;;14.37;;
18176;SDS011;9213;50.858;3.964;2023-05-10T12:36:06;17.93;;;14.60;;
18176;SDS011;9213;50.858;3.964;2023-05-10T12:38:34;21.10;;;13.97;;
18176;SDS011;9213;50.858;3.964;2023-05-10T12:41:03;17.40;;;13.97;;
18176;SDS011;9213;50.858;3.964;2023-05-10T12:43:32;19.20;;;14.83;;
18176;SDS011;9213;50.858;3.964;2023-05-10T12:46:05;21.10;;;15.37;;
18176;SDS011;9213;50.858;3.964;2023-05-10T12:48:33;19.30;;;14.07;;
18176;SDS011;9213;50.858;3.964;2023-05-10T12:51:00;17.37;;;14.00;;
18176;SDS011;9213;50.858;3.964;2023-05-10T12:53:28;16.97;;;13.70;;
18176;SDS011;9213;50.858;3.964;2023-05-10T12:55:55;16.37;;;14.43;;
18176;SDS011;9213;50.858;3.964;2023-05-10T12:58:22;18.17;;;14.87;;
18176;SDS011;9213;50.858;3.964;2023-05-10T13:00:49;18.80;;;15.27;;
18176;SDS011;9213;50.858;3.964;2023-05-10T13:03:18;19.23;;;14.50;;
18176;SDS011;9213;50.858;3.964;2023-05-10T13:05:45;19.33;;;14.93;;
18176;SDS011;9213;50.858;3.964;2023-05-10T13:08:12;20.60;;;14.57;;
18176;SDS011;9213;50.858;3.964;2023-05-10T13:10:39;20.37;;;15.30;;
18176;SDS011;9213;50.858;3.964;2023-05-10T13:13:06;16.63;;;14.37;;
18176;SDS011;9213;50.858;3.964;2023-05-10T13:15:33;19.23;;;15.20;;
18176;SDS011;9213;50.858;3.964;2023-05-10T13:18:00;28.00;;;17.17;;
18176;SDS011;9213;50.858;3.964;2023-05-10T13:20:29;18.33;;;14.80;;
18176;SDS011;9213;50.858;3.964;2023-05-10T13:22:55;18.88;;;14.48;;
18176;SDS011;9213;50.858;3.964;2023-05-10T13:25:22;18.20;;;13.80;;
18176;SDS011;9213;50.858;3.964;2023-05-10T13:27:49;17.37;;;13.70;;
18176;SDS011;9213;50.858;3.964;2023-05-10T13:30:16;19.07;;;12.90;;
18176;SDS011;9213;50.858;3.964;2023-05-10T13:32:43;15.88;;;12.98;;
18176;SDS011;9213;50.858;3.964;2023-05-10T13:35:10;15.95;;;13.02;;
18176;SDS011;9213;50.858;3.964;2023-05-10T13:37:38;14.57;;;12.33;;
18176;SDS011;9213;50.858;3.964;2023-05-10T13:40:06;15.30;;;11.83;;
18176;SDS011;9213;50.858;3.964;2023-05-10T13:42:33;15.00;;;12.03;;
18176;SDS011;9213;50.858;3.964;2023-05-10T13:45:00;14.10;;;11.13;;
18176;SDS011;9213;50.858;3.964;2023-05-10T13:47:27;14.27;;;11.43;;
18176;SDS011;9213;50.858;3.964;2023-05-10T13:49:54;13.90;;;11.88;;
18176;SDS011;9213;50.858;3.964;2023-05-10T13:52:22;12.55;;;10.75;;
18176;SDS011;9213;50.858;3.964;2023-05-10T13:54:50;12.70;;;11.40;;
18176;SDS011;9213;50.858;3.964;2023-05-10T13:57:19;14.83;;;11.23;;
18176;SDS011;9213;50.858;3.964;2023-05-10T13:59:46;15.63;;;12.63;;
18176;SDS011;9213;50.858;3.964;2023-05-10T14:02:13;15.95;;;11.93;;
18176;SDS011;9213;50.858;3.964;2023-05-10T14:04:40;19.43;;;13.80;;
18176;SDS011;9213;50.858;3.964;2023-05-10T14:07:07;16.07;;;13.23;;
18176;SDS011;9213;50.858;3.964;2023-05-10T14:09:34;23.83;;;14.47;;
18176;SDS011;9213;50.858;3.964;2023-05-10T14:12:02;18.00;;;12.23;;
18176;SDS011;9213;50.858;3.964;2023-05-10T14:14:29;11.57;;;7.93;;
18176;SDS011;9213;50.858;3.964;2023-05-10T14:16:56;10.63;;;8.10;;
18176;SDS011;9213;50.858;3.964;2023-05-10T14:19:24;14.43;;;9.20;;
18176;SDS011;9213;50.858;3.964;2023-05-10T14:21:51;12.63;;;8.67;;
18176;SDS011;9213;50.858;3.964;2023-05-10T14:24:18;12.43;;;8.87;;
18176;SDS011;9213;50.858;3.964;2023-05-10T14:26:45;18.73;;;10.73;;
18176;SDS011;9213;50.858;3.964;2023-05-10T14:29:13;15.23;;;11.67;;
18176;SDS011;9213;50.858;3.964;2023-05-10T14:31:40;15.93;;;12.33;;
18176;SDS011;9213;50.858;3.964;2023-05-10T14:34:07;15.13;;;11.53;;
18176;SDS011;9213;50.858;3.964;2023-05-10T14:36:34;17.40;;;12.03;;
18176;SDS011;9213;50.858;3.964;2023-05-10T14:39:01;18.67;;;12.80;;
18176;SDS011;9213;50.858;3.964;2023-05-10T14:41:28;17.17;;;12.10;;
18176;SDS011;9213;50.858;3.964;2023-05-10T14:43:56;18.47;;;12.67;;
18176;SDS011;9213;50.858;3.964;2023-05-10T14:46:24;20.07;;;12.83;;
18176;SDS011;9213;50.858;3.964;2023-05-10T14:48:51;19.43;;;11.33;;
18176;SDS011;9213;50.858;3.964;2023-05-10T14:51:18;16.23;;;11.30;;
18176;SDS011;9213;50.858;3.964;2023-05-10T14:53:46;16.57;;;11.93;;
18176;SDS011;9213;50.858;3.964;2023-05-10T14:56:14;20.33;;;12.43;;
18176;SDS011;9213;50.858;3.964;2023-05-10T14:58:41;19.77;;;11.80;;
18176;SDS011;9213;50.858;3.964;2023-05-10T15:01:08;18.43;;;12.03;;